Time;durP1;ratioP1;P1;durP2;ratioP2;P2;SDS_P1;SDS_P2;PMS_P1;PMS_P2;Temp;Humidity;BMP_temperature;BMP_pressure;BME280_temperature;BME280_humidity;BME280_pressure;Samples;Min_cycle;Max_cycle;Signal;HPM_P1;HPM_P2
2020/07/24 00:00:04;;;;;;;9.7;8.9;;;;;;;16.25;90.99219;94917.05;;;;
2020/07/24 00:01:05;;;;;;;9.7;8.9;;;;;;;16.25;90.99219;94917.05;;;;
2020/07/24 00:02:05;;;;;;;9.7;8.9;;;;;;;16.25;90.99219;94917.05;;;;
2020/07/24 00:03:06;;;;;;;9.7;8.9;;;;;;;16.25;90.99219;94917.05;;;;
2020/07/24 00:04:06;;;;;;;9.7;8.9;;;;;;;16.25;90.99219;94917.05;;;;
2020/07/24 00:05:07;;;;;;;9.7;8.9;;;;;;;16.25;90.99219;94917.05;;;;
2020/07/24 00:06:07;;;;;;;9.7;8.9;;;;;;;16.25;90.99219;94917.05;;;;
2020/07/24 00:07:08;;;;;;;9.7;8.9;;;;;;;16.25;90.99219;94917.05;;;;
2020/07/24 00:08:08;;;;;;;9.7;8.9;;;;;;;16.25;90.99219;94917.05;;;;
2020/07/24 00:09:09;;;;;;;9.7;8.9;;;;;;;16.25;90.99219;94917.05;;;;
2020/07/24 00:10:09;;;;;;;9.7;8.9;;;;;;;16.25;90.99219;94917.05;;;;
2020/07/24 00:11:10;;;;;;;8.749998;7.950001;;;;;;;16.23;91.44141;94911.88;;;;
2020/07/24 00:12:11;;;;;;;8.749998;7.950001;;;;;;;16.23;91.44141;94911.88;;;;
2020/07/24 00:13:12;;;;;;;8.749998;7.950001;;;;;;;16.23;91.44141;94911.88;;;;
2020/07/24 00:14:12;;;;;;;8.749998;7.950001;;;;;;;16.23;91.44141;94911.88;;;;
2020/07/24 00:15:13;;;;;;;8.749998;7.950001;;;;;;;16.23;91.44141;94911.88;;;;
2020/07/24 00:16:13;;;;;;;8.749998;7.950001;;;;;;;16.23;91.44141;94911.88;;;;
2020/07/24 00:17:14;;;;;;;8.749998;7.950001;;;;;;;16.23;91.44141;94911.88;;;;
2020/07/24 00:18:14;;;;;;;8.749998;7.950001;;;;;;;16.23;91.44141;94911.88;;;;
2020/07/24 00:19:15;;;;;;;8.749998;7.950001;;;;;;;16.23;91.44141;94911.88;;;;
2020/07/24 00:20:15;;;;;;;8.749998;7.950001;;;;;;;16.23;91.44141;94911.88;;;;
2020/07/24 00:21:16;;;;;;;8.849999;7.900001;;;;;;;16.29;91.80859;94908.59;;;;
2020/07/24 00:22:16;;;;;;;8.849999;7.900001;;;;;;;16.29;91.80859;94908.59;;;;
2020/07/24 00:23:17;;;;;;;8.849999;7.900001;;;;;;;16.29;91.80859;94908.59;;;;
2020/07/24 00:24:17;;;;;;;8.849999;7.900001;;;;;;;16.29;91.80859;94908.59;;;;
2020/07/24 00:25:18;;;;;;;8.849999;7.900001;;;;;;;16.29;91.80859;94908.59;;;;
2020/07/24 00:26:18;;;;;;;8.849999;7.900001;;;;;;;16.29;91.80859;94908.59;;;;
2020/07/24 00:27:19;;;;;;;8.849999;7.900001;;;;;;;16.29;91.80859;94908.59;;;;
2020/07/24 00:28:19;;;;;;;8.849999;7.900001;;;;;;;16.29;91.80859;94908.59;;;;
2020/07/24 00:29:20;;;;;;;8.849999;7.900001;;;;;;;16.29;91.80859;94908.59;;;;
2020/07/24 00:30:20;;;;;;;8.849999;7.900001;;;;;;;16.29;91.80859;94908.59;;;;
2020/07/24 00:31:21;;;;;;;8.849999;7.900001;;;;;;;16.29;91.80859;94908.59;;;;
2020/07/24 00:32:21;;;;;;;8.799999;8.000002;;;;;;;16.27;92.03125;94895.79;;;;
2020/07/24 00:33:22;;;;;;;8.799999;8.000002;;;;;;;16.27;92.03125;94895.79;;;;
2020/07/24 00:34:22;;;;;;;8.799999;8.000002;;;;;;;16.27;92.03125;94895.79;;;;
2020/07/24 00:35:23;;;;;;;8.799999;8.000002;;;;;;;16.27;92.03125;94895.79;;;;
2020/07/24 00:36:23;;;;;;;8.799999;8.000002;;;;;;;16.27;92.03125;94895.79;;;;
2020/07/24 00:37:24;;;;;;;8.799999;8.000002;;;;;;;16.27;92.03125;94895.79;;;;
2020/07/24 00:38:24;;;;;;;8.799999;8.000002;;;;;;;16.27;92.03125;94895.79;;;;
2020/07/24 00:39:25;;;;;;;8.799999;8.000002;;;;;;;16.27;92.03125;94895.79;;;;
2020/07/24 00:40:25;;;;;;;8.799999;8.000002;;;;;;;16.27;92.03125;94895.79;;;;
2020/07/24 00:41:26;;;;;;;8.799999;8.000002;;;;;;;16.27;92.03125;94895.79;;;;
2020/07/24 00:42:26;;;;;;;8.349998;7.650001;;;;;;;16.27;92.34473;94895.25;;;;
2020/07/24 00:43:27;;;;;;;8.349998;7.650001;;;;;;;16.27;92.34473;94895.25;;;;
2020/07/24 00:44:27;;;;;;;8.349998;7.650001;;;;;;;16.27;92.34473;94895.25;;;;
2020/07/24 00:45:27;;;;;;;8.349998;7.650001;;;;;;;16.27;92.34473;94895.25;;;;
2020/07/24 00:46:28;;;;;;;8.349998;7.650001;;;;;;;16.27;92.34473;94895.25;;;;
2020/07/24 00:47:29;;;;;;;8.349998;7.650001;;;;;;;16.27;92.34473;94895.25;;;;
2020/07/24 00:48:29;;;;;;;8.349998;7.650001;;;;;;;16.27;92.34473;94895.25;;;;
2020/07/24 00:49:30;;;;;;;8.349998;7.650001;;;;;;;16.27;92.34473;94895.25;;;;
2020/07/24 00:50:30;;;;;;;8.349998;7.650001;;;;;;;16.27;92.34473;94895.25;;;;
2020/07/24 00:51:31;;;;;;;8.349998;7.650001;;;;;;;16.27;92.34473;94895.25;;;;
2020/07/24 00:52:31;;;;;;;8.349998;7.650001;;;;;;;16.27;92.34473;94895.25;;;;
2020/07/24 00:53:32;;;;;;;8.700002;7.900001;;;;;;;16.18;92.59473;94889.7;;;;
2020/07/24 00:54:32;;;;;;;8.700002;7.900001;;;;;;;16.18;92.59473;94889.7;;;;
2020/07/24 00:55:33;;;;;;;8.700002;7.900001;;;;;;;16.18;92.59473;94889.7;;;;
2020/07/24 00:56:33;;;;;;;8.700002;7.900001;;;;;;;16.18;92.59473;94889.7;;;;
2020/07/24 00:57:34;;;;;;;8.700002;7.900001;;;;;;;16.18;92.59473;94889.7;;;;
2020/07/24 00:58:34;;;;;;;8.700002;7.900001;;;;;;;16.18;92.59473;94889.7;;;;
2020/07/24 01:00:07;;;;;;;8.700002;7.900001;;;;;;;16.18;92.59473;94889.7;;;;
2020/07/24 01:01:07;;;;;;;8.700002;7.900001;;;;;;;16.18;92.59473;94889.7;;;;
2020/07/24 01:02:08;;;;;;;8.700002;7.900001;;;;;;;16.18;92.59473;94889.7;;;;
2020/07/24 01:03:12;;;;;;;8.700002;7.900001;;;;;;;16.18;92.59473;94889.7;;;;
2020/07/24 01:04:13;;;;;;;8.5;7.75;;;;;;;16.13;93.09082;94894.78;;;;
2020/07/24 01:05:13;;;;;;;8.5;7.75;;;;;;;16.13;93.09082;94894.78;;;;
2020/07/24 01:06:14;;;;;;;8.5;7.75;;;;;;;16.13;93.09082;94894.78;;;;
2020/07/24 01:07:15;;;;;;;8.5;7.75;;;;;;;16.13;93.09082;94894.78;;;;
2020/07/24 01:08:15;;;;;;;8.5;7.75;;;;;;;16.13;93.09082;94894.78;;;;
2020/07/24 01:09:16;;;;;;;8.5;7.75;;;;;;;16.13;93.09082;94894.78;;;;
2020/07/24 01:10:16;;;;;;;8.5;7.75;;;;;;;16.13;93.09082;94894.78;;;;
2020/07/24 01:11:17;;;;;;;8.5;7.75;;;;;;;16.13;93.09082;94894.78;;;;
2020/07/24 01:12:17;;;;;;;8.5;7.75;;;;;;;16.13;93.09082;94894.78;;;;
2020/07/24 01:13:17;;;;;;;8.5;7.75;;;;;;;16.13;93.09082;94894.78;;;;
2020/07/24 01:14:18;;;;;;;8.500001;7.5;;;;;;;16.2;93.18262;94885.75;;;;
2020/07/24 01:15:18;;;;;;;8.500001;7.5;;;;;;;16.2;93.18262;94885.75;;;;
2020/07/24 01:16:19;;;;;;;8.500001;7.5;;;;;;;16.2;93.18262;94885.75;;;;
2020/07/24 01:17:19;;;;;;;8.500001;7.5;;;;;;;16.2;93.18262;94885.75;;;;
2020/07/24 01:18:20;;;;;;;8.500001;7.5;;;;;;;16.2;93.18262;94885.75;;;;
2020/07/24 01:19:20;;;;;;;8.500001;7.5;;;;;;;16.2;93.18262;94885.75;;;;
2020/07/24 01:20:21;;;;;;;8.500001;7.5;;;;;;;16.2;93.18262;94885.75;;;;
2020/07/24 01:21:21;;;;;;;8.500001;7.5;;;;;;;16.2;93.18262;94885.75;;;;
2020/07/24 01:22:22;;;;;;;8.500001;7.5;;;;;;;16.2;93.18262;94885.75;;;;
2020/07/24 01:23:22;;;;;;;8.500001;7.5;;;;;;;16.2;93.18262;94885.75;;;;
2020/07/24 01:24:23;;;;;;;8.500001;7.5;;;;;;;16.2;93.18262;94885.75;;;;
2020/07/24 01:25:23;;;;;;;8.25;7.349999;;;;;;;16.18;93.27344;94881.13;;;;
2020/07/24 01:26:24;;;;;;;8.25;7.349999;;;;;;;16.18;93.27344;94881.13;;;;
2020/07/24 01:27:25;;;;;;;8.25;7.349999;;;;;;;16.18;93.27344;94881.13;;;;
2020/07/24 01:28:25;;;;;;;8.25;7.349999;;;;;;;16.18;93.27344;94881.13;;;;
2020/07/24 01:29:26;;;;;;;8.25;7.349999;;;;;;;16.18;93.27344;94881.13;;;;
2020/07/24 01:30:26;;;;;;;8.25;7.349999;;;;;;;16.18;93.27344;94881.13;;;;
2020/07/24 01:31:27;;;;;;;8.25;7.349999;;;;;;;16.18;93.27344;94881.13;;;;
2020/07/24 01:32:27;;;;;;;8.25;7.349999;;;;;;;16.18;93.27344;94881.13;;;;
2020/07/24 01:33:28;;;;;;;8.25;7.349999;;;;;;;16.18;93.27344;94881.13;;;;
2020/07/24 01:34:28;;;;;;;8.25;7.349999;;;;;;;16.18;93.27344;94881.13;;;;
2020/07/24 01:35:29;;;;;;;8.550001;7.749999;;;;;;;16.19;93.35254;94876.75;;;;
2020/07/24 01:36:29;;;;;;;8.550001;7.749999;;;;;;;16.19;93.35254;94876.75;;;;
2020/07/24 01:37:30;;;;;;;8.550001;7.749999;;;;;;;16.19;93.35254;94876.75;;;;
2020/07/24 01:38:31;;;;;;;8.550001;7.749999;;;;;;;16.19;93.35254;94876.75;;;;
2020/07/24 01:39:31;;;;;;;8.550001;7.749999;;;;;;;16.19;93.35254;94876.75;;;;
2020/07/24 01:40:32;;;;;;;8.550001;7.749999;;;;;;;16.19;93.35254;94876.75;;;;
2020/07/24 01:41:32;;;;;;;8.550001;7.749999;;;;;;;16.19;93.35254;94876.75;;;;
2020/07/24 01:42:33;;;;;;;8.550001;7.749999;;;;;;;16.19;93.35254;94876.75;;;;
2020/07/24 01:43:33;;;;;;;8.550001;7.749999;;;;;;;16.19;93.35254;94876.75;;;;
2020/07/24 01:44:34;;;;;;;8.550001;7.749999;;;;;;;16.19;93.35254;94876.75;;;;
2020/07/24 01:45:34;;;;;;;8.550001;7.749999;;;;;;;16.19;93.35254;94876.75;;;;
2020/07/24 01:46:36;;;;;;;8.700002;8;;;;;;;16.11;93.59375;94870.14;;;;
2020/07/24 01:47:36;;;;;;;8.700002;8;;;;;;;16.11;93.59375;94870.14;;;;
2020/07/24 01:48:37;;;;;;;8.700002;8;;;;;;;16.11;93.59375;94870.14;;;;
2020/07/24 01:49:37;;;;;;;8.700002;8;;;;;;;16.11;93.59375;94870.14;;;;
2020/07/24 01:50:38;;;;;;;8.700002;8;;;;;;;16.11;93.59375;94870.14;;;;
2020/07/24 01:51:38;;;;;;;8.700002;8;;;;;;;16.11;93.59375;94870.14;;;;
2020/07/24 01:52:38;;;;;;;8.700002;8;;;;;;;16.11;93.59375;94870.14;;;;
2020/07/24 01:53:39;;;;;;;8.700002;8;;;;;;;16.11;93.59375;94870.14;;;;
2020/07/24 01:54:39;;;;;;;8.700002;8;;;;;;;16.11;93.59375;94870.14;;;;
2020/07/24 01:55:40;;;;;;;8.700002;8;;;;;;;16.11;93.59375;94870.14;;;;
2020/07/24 01:56:40;;;;;;;8.650002;7.749999;;;;;;;16.07;94.04883;94859.53;;;;
2020/07/24 01:57:41;;;;;;;8.650002;7.749999;;;;;;;16.07;94.04883;94859.53;;;;
2020/07/24 01:58:41;;;;;;;8.650002;7.749999;;;;;;;16.07;94.04883;94859.53;;;;
2020/07/24 01:59:42;;;;;;;8.650002;7.749999;;;;;;;16.07;94.04883;94859.53;;;;
2020/07/24 02:00:42;;;;;;;8.650002;7.749999;;;;;;;16.07;94.04883;94859.53;;;;
2020/07/24 02:01:43;;;;;;;8.650002;7.749999;;;;;;;16.07;94.04883;94859.53;;;;
2020/07/24 02:02:43;;;;;;;8.650002;7.749999;;;;;;;16.07;94.04883;94859.53;;;;
2020/07/24 02:03:44;;;;;;;8.650002;7.749999;;;;;;;16.07;94.04883;94859.53;;;;
2020/07/24 02:04:44;;;;;;;8.650002;7.749999;;;;;;;16.07;94.04883;94859.53;;;;
2020/07/24 02:05:45;;;;;;;8.650002;7.749999;;;;;;;16.07;94.04883;94859.53;;;;
2020/07/24 02:06:45;;;;;;;8.650002;7.749999;;;;;;;16.07;94.04883;94859.53;;;;
2020/07/24 02:07:46;;;;;;;8.45;7.7;;;;;;;16.05;94.22754;94855.31;;;;
2020/07/24 02:08:46;;;;;;;8.45;7.7;;;;;;;16.05;94.22754;94855.31;;;;
2020/07/24 02:09:47;;;;;;;8.45;7.7;;;;;;;16.05;94.22754;94855.31;;;;
2020/07/24 02:10:47;;;;;;;8.45;7.7;;;;;;;16.05;94.22754;94855.31;;;;
2020/07/24 02:11:48;;;;;;;8.45;7.7;;;;;;;16.05;94.22754;94855.31;;;;
2020/07/24 02:12:48;;;;;;;8.45;7.7;;;;;;;16.05;94.22754;94855.31;;;;
2020/07/24 02:13:49;;;;;;;8.45;7.7;;;;;;;16.05;94.22754;94855.31;;;;
2020/07/24 02:14:49;;;;;;;8.45;7.7;;;;;;;16.05;94.22754;94855.31;;;;
2020/07/24 02:15:50;;;;;;;8.45;7.7;;;;;;;16.05;94.22754;94855.31;;;;
2020/07/24 02:16:50;;;;;;;8.45;7.7;;;;;;;16.05;94.22754;94855.31;;;;
2020/07/24 02:17:51;;;;;;;9.050001;8.299998;;;;;;;15.95;94.55273;94853.06;;;;
2020/07/24 02:18:51;;;;;;;9.050001;8.299998;;;;;;;15.95;94.55273;94853.06;;;;
2020/07/24 02:19:52;;;;;;;9.050001;8.299998;;;;;;;15.95;94.55273;94853.06;;;;
2020/07/24 02:20:52;;;;;;;9.050001;8.299998;;;;;;;15.95;94.55273;94853.06;;;;
2020/07/24 02:21:53;;;;;;;9.050001;8.299998;;;;;;;15.95;94.55273;94853.06;;;;
2020/07/24 02:22:53;;;;;;;9.050001;8.299998;;;;;;;15.95;94.55273;94853.06;;;;
2020/07/24 02:23:55;;;;;;;9.050001;8.299998;;;;;;;15.95;94.55273;94853.06;;;;
2020/07/24 02:24:56;;;;;;;9.050001;8.299998;;;;;;;15.95;94.55273;94853.06;;;;
2020/07/24 02:25:56;;;;;;;9.050001;8.299998;;;;;;;15.95;94.55273;94853.06;;;;
2020/07/24 02:26:57;;;;;;;9.050001;8.299998;;;;;;;15.95;94.55273;94853.06;;;;
2020/07/24 02:27:57;;;;;;;9.050001;8.299998;;;;;;;15.95;94.55273;94853.06;;;;
2020/07/24 02:28:57;;;;;;;10.4;7.8;;;;;;;15.89;94.98828;94836.6;;;;
2020/07/24 02:29:58;;;;;;;10.4;7.8;;;;;;;15.89;94.98828;94836.6;;;;
2020/07/24 02:30:59;;;;;;;10.4;7.8;;;;;;;15.89;94.98828;94836.6;;;;
2020/07/24 02:31:59;;;;;;;10.4;7.8;;;;;;;15.89;94.98828;94836.6;;;;
2020/07/24 02:32:59;;;;;;;10.4;7.8;;;;;;;15.89;94.98828;94836.6;;;;
2020/07/24 02:34:00;;;;;;;10.4;7.8;;;;;;;15.89;94.98828;94836.6;;;;
2020/07/24 02:35:00;;;;;;;10.4;7.8;;;;;;;15.89;94.98828;94836.6;;;;
2020/07/24 02:36:01;;;;;;;10.4;7.8;;;;;;;15.89;94.98828;94836.6;;;;
2020/07/24 02:37:04;;;;;;;10.4;7.8;;;;;;;15.89;94.98828;94836.6;;;;
2020/07/24 02:38:04;;;;;;;10.4;7.8;;;;;;;15.89;94.98828;94836.6;;;;
2020/07/24 02:39:05;;;;;;;9.249998;8.349999;;;;;;;15.77;95.44824;94826.59;;;;
2020/07/24 02:40:05;;;;;;;9.249998;8.349999;;;;;;;15.77;95.44824;94826.59;;;;
2020/07/24 02:41:06;;;;;;;9.249998;8.349999;;;;;;;15.77;95.44824;94826.59;;;;
2020/07/24 02:42:06;;;;;;;9.249998;8.349999;;;;;;;15.77;95.44824;94826.59;;;;
2020/07/24 02:43:07;;;;;;;9.249998;8.349999;;;;;;;15.77;95.44824;94826.59;;;;
2020/07/24 02:44:07;;;;;;;9.249998;8.349999;;;;;;;15.77;95.44824;94826.59;;;;
2020/07/24 02:45:08;;;;;;;9.249998;8.349999;;;;;;;15.77;95.44824;94826.59;;;;
2020/07/24 02:46:08;;;;;;;9.249998;8.349999;;;;;;;15.77;95.44824;94826.59;;;;
2020/07/24 02:47:09;;;;;;;9.249998;8.349999;;;;;;;15.77;95.44824;94826.59;;;;
2020/07/24 02:48:09;;;;;;;9.249998;8.349999;;;;;;;15.77;95.44824;94826.59;;;;
2020/07/24 02:49:10;;;;;;;9.249998;8.349999;;;;;;;15.77;95.44824;94826.59;;;;
2020/07/24 02:50:10;;;;;;;9.5;8.5;;;;;;;15.66;96.05859;94823.1;;;;
2020/07/24 02:51:11;;;;;;;9.5;8.5;;;;;;;15.66;96.05859;94823.1;;;;
2020/07/24 02:52:11;;;;;;;9.5;8.5;;;;;;;15.66;96.05859;94823.1;;;;
2020/07/24 02:53:12;;;;;;;9.5;8.5;;;;;;;15.66;96.05859;94823.1;;;;
2020/07/24 02:54:12;;;;;;;9.5;8.5;;;;;;;15.66;96.05859;94823.1;;;;
2020/07/24 02:55:13;;;;;;;9.5;8.5;;;;;;;15.66;96.05859;94823.1;;;;
2020/07/24 02:56:13;;;;;;;9.5;8.5;;;;;;;15.66;96.05859;94823.1;;;;
2020/07/24 02:57:14;;;;;;;9.5;8.5;;;;;;;15.66;96.05859;94823.1;;;;
2020/07/24 02:58:14;;;;;;;9.5;8.5;;;;;;;15.66;96.05859;94823.1;;;;
2020/07/24 02:59:15;;;;;;;9.5;8.5;;;;;;;15.66;96.05859;94823.1;;;;
2020/07/24 03:00:16;;;;;;;9.899999;9;;;;;;;15.68;96.52734;94825.83;;;;
2020/07/24 03:01:16;;;;;;;9.899999;9;;;;;;;15.68;96.52734;94825.83;;;;
2020/07/24 03:02:17;;;;;;;9.899999;9;;;;;;;15.68;96.52734;94825.83;;;;
2020/07/24 03:03:17;;;;;;;9.899999;9;;;;;;;15.68;96.52734;94825.83;;;;
2020/07/24 03:04:18;;;;;;;9.899999;9;;;;;;;15.68;96.52734;94825.83;;;;
2020/07/24 03:05:18;;;;;;;9.899999;9;;;;;;;15.68;96.52734;94825.83;;;;
2020/07/24 03:06:19;;;;;;;9.899999;9;;;;;;;15.68;96.52734;94825.83;;;;
2020/07/24 03:07:19;;;;;;;9.899999;9;;;;;;;15.68;96.52734;94825.83;;;;
2020/07/24 03:08:20;;;;;;;9.899999;9;;;;;;;15.68;96.52734;94825.83;;;;
2020/07/24 03:09:20;;;;;;;9.899999;9;;;;;;;15.68;96.52734;94825.83;;;;
2020/07/24 03:10:21;;;;;;;9.899999;9;;;;;;;15.68;96.52734;94825.83;;;;
2020/07/24 03:11:22;;;;;;;10.05;9.05;;;;;;;15.73;96.77441;94839;;;;
2020/07/24 03:12:23;;;;;;;10.05;9.05;;;;;;;15.73;96.77441;94839;;;;
2020/07/24 03:13:23;;;;;;;10.05;9.05;;;;;;;15.73;96.77441;94839;;;;
2020/07/24 03:14:24;;;;;;;10.05;9.05;;;;;;;15.73;96.77441;94839;;;;
2020/07/24 03:15:25;;;;;;;10.05;9.05;;;;;;;15.73;96.77441;94839;;;;
2020/07/24 03:16:25;;;;;;;10.05;9.05;;;;;;;15.73;96.77441;94839;;;;
2020/07/24 03:17:26;;;;;;;10.05;9.05;;;;;;;15.73;96.77441;94839;;;;
2020/07/24 03:18:26;;;;;;;10.05;9.05;;;;;;;15.73;96.77441;94839;;;;
2020/07/24 03:19:27;;;;;;;10.05;9.05;;;;;;;15.73;96.77441;94839;;;;
2020/07/24 03:20:27;;;;;;;10.05;9.05;;;;;;;15.73;96.77441;94839;;;;
2020/07/24 03:21:28;;;;;;;10.15;9.15;;;;;;;15.66;97.20996;94842.16;;;;
2020/07/24 03:22:28;;;;;;;10.15;9.15;;;;;;;15.66;97.20996;94842.16;;;;
2020/07/24 03:23:29;;;;;;;10.15;9.15;;;;;;;15.66;97.20996;94842.16;;;;
2020/07/24 03:24:29;;;;;;;10.15;9.15;;;;;;;15.66;97.20996;94842.16;;;;
2020/07/24 03:25:30;;;;;;;10.15;9.15;;;;;;;15.66;97.20996;94842.16;;;;
2020/07/24 03:26:30;;;;;;;10.15;9.15;;;;;;;15.66;97.20996;94842.16;;;;
2020/07/24 03:27:31;;;;;;;10.15;9.15;;;;;;;15.66;97.20996;94842.16;;;;
2020/07/24 03:28:31;;;;;;;10.15;9.15;;;;;;;15.66;97.20996;94842.16;;;;
2020/07/24 03:29:32;;;;;;;10.15;9.15;;;;;;;15.66;97.20996;94842.16;;;;
2020/07/24 03:30:32;;;;;;;10.15;9.15;;;;;;;15.66;97.20996;94842.16;;;;
2020/07/24 03:31:33;;;;;;;10.15;9.15;;;;;;;15.66;97.20996;94842.16;;;;
2020/07/24 03:32:33;;;;;;;10.35;9.249998;;;;;;;15.65;97.94043;94843.23;;;;
2020/07/24 03:33:34;;;;;;;10.35;9.249998;;;;;;;15.65;97.94043;94843.23;;;;
2020/07/24 03:34:34;;;;;;;10.35;9.249998;;;;;;;15.65;97.94043;94843.23;;;;
2020/07/24 03:35:35;;;;;;;10.35;9.249998;;;;;;;15.65;97.94043;94843.23;;;;
2020/07/24 03:36:35;;;;;;;10.35;9.249998;;;;;;;15.65;97.94043;94843.23;;;;
2020/07/24 03:37:36;;;;;;;10.35;9.249998;;;;;;;15.65;97.94043;94843.23;;;;
2020/07/24 03:38:36;;;;;;;10.35;9.249998;;;;;;;15.65;97.94043;94843.23;;;;
2020/07/24 03:39:37;;;;;;;10.35;9.249998;;;;;;;15.65;97.94043;94843.23;;;;
2020/07/24 03:40:37;;;;;;;10.35;9.249998;;;;;;;15.65;97.94043;94843.23;;;;
2020/07/24 03:41:39;;;;;;;10.35;9.249998;;;;;;;15.65;97.94043;94843.23;;;;
2020/07/24 03:42:43;;;;;;;9.899999;9;;;;;;;15.6;98.46582;94851;;;;
2020/07/24 03:43:55;;;;;;;9.899999;9;;;;;;;15.6;98.46582;94851;;;;
2020/07/24 03:45:00;;;;;;;9.899999;9;;;;;;;15.6;98.46582;94851;;;;
2020/07/24 03:46:02;;;;;;;9.899999;9;;;;;;;15.6;98.46582;94851;;;;
2020/07/24 03:47:03;;;;;;;9.899999;9;;;;;;;15.6;98.46582;94851;;;;
2020/07/24 03:48:05;;;;;;;9.899999;9;;;;;;;15.6;98.46582;94851;;;;
2020/07/24 03:49:06;;;;;;;9.899999;9;;;;;;;15.6;98.46582;94851;;;;
2020/07/24 03:50:07;;;;;;;9.899999;9;;;;;;;15.6;98.46582;94851;;;;
2020/07/24 03:51:08;;;;;;;9.899999;9;;;;;;;15.6;98.46582;94851;;;;
2020/07/24 03:52:10;;;;;;;9.899999;9;;;;;;;15.6;98.46582;94851;;;;
2020/07/24 03:53:10;;;;;;;9.6;8.799998;;;;;;;15.59;98.9043;94849.8;;;;
2020/07/24 03:54:11;;;;;;;9.6;8.799998;;;;;;;15.59;98.9043;94849.8;;;;
2020/07/24 03:55:12;;;;;;;9.6;8.799998;;;;;;;15.59;98.9043;94849.8;;;;
2020/07/24 03:56:12;;;;;;;9.6;8.799998;;;;;;;15.59;98.9043;94849.8;;;;
2020/07/24 03:57:13;;;;;;;9.6;8.799998;;;;;;;15.59;98.9043;94849.8;;;;
2020/07/24 03:58:13;;;;;;;9.6;8.799998;;;;;;;15.59;98.9043;94849.8;;;;
2020/07/24 03:59:14;;;;;;;9.6;8.799998;;;;;;;15.59;98.9043;94849.8;;;;
2020/07/24 04:00:14;;;;;;;9.6;8.799998;;;;;;;15.59;98.9043;94849.8;;;;
2020/07/24 04:01:15;;;;;;;9.6;8.799998;;;;;;;15.59;98.9043;94849.8;;;;
2020/07/24 04:02:16;;;;;;;9.6;8.799998;;;;;;;15.59;98.9043;94849.8;;;;
2020/07/24 04:03:16;;;;;;;9.6;8.799998;;;;;;;15.59;98.9043;94849.8;;;;
2020/07/24 04:04:17;;;;;;;9.4;8.599999;;;;;;;15.47;99.19922;94847.94;;;;
2020/07/24 04:05:17;;;;;;;9.4;8.599999;;;;;;;15.47;99.19922;94847.94;;;;
2020/07/24 04:06:18;;;;;;;9.4;8.599999;;;;;;;15.47;99.19922;94847.94;;;;
2020/07/24 04:07:18;;;;;;;9.4;8.599999;;;;;;;15.47;99.19922;94847.94;;;;
2020/07/24 04:08:19;;;;;;;9.4;8.599999;;;;;;;15.47;99.19922;94847.94;;;;
2020/07/24 04:09:19;;;;;;;9.4;8.599999;;;;;;;15.47;99.19922;94847.94;;;;
2020/07/24 04:10:20;;;;;;;9.4;8.599999;;;;;;;15.47;99.19922;94847.94;;;;
2020/07/24 04:11:20;;;;;;;9.4;8.599999;;;;;;;15.47;99.19922;94847.94;;;;
2020/07/24 04:12:21;;;;;;;9.4;8.599999;;;;;;;15.47;99.19922;94847.94;;;;
2020/07/24 04:13:21;;;;;;;9.4;8.599999;;;;;;;15.47;99.19922;94847.94;;;;
2020/07/24 04:14:22;;;;;;;9.499999;8.700001;;;;;;;15.43;99.78125;94840.06;;;;
2020/07/24 04:15:23;;;;;;;9.499999;8.700001;;;;;;;15.43;99.78125;94840.06;;;;
2020/07/24 04:16:23;;;;;;;9.499999;8.700001;;;;;;;15.43;99.78125;94840.06;;;;
2020/07/24 04:17:24;;;;;;;9.499999;8.700001;;;;;;;15.43;99.78125;94840.06;;;;
2020/07/24 04:18:24;;;;;;;9.499999;8.700001;;;;;;;15.43;99.78125;94840.06;;;;
2020/07/24 04:19:25;;;;;;;9.499999;8.700001;;;;;;;15.43;99.78125;94840.06;;;;
2020/07/24 04:20:25;;;;;;;9.499999;8.700001;;;;;;;15.43;99.78125;94840.06;;;;
2020/07/24 04:21:26;;;;;;;9.499999;8.700001;;;;;;;15.43;99.78125;94840.06;;;;
2020/07/24 04:22:26;;;;;;;9.499999;8.700001;;;;;;;15.43;99.78125;94840.06;;;;
2020/07/24 04:23:27;;;;;;;9.499999;8.700001;;;;;;;15.43;99.78125;94840.06;;;;
2020/07/24 04:24:27;;;;;;;9.499999;8.700001;;;;;;;15.43;99.78125;94840.06;;;;
2020/07/24 04:25:28;;;;;;;9.900001;9;;;;;;;15.53;100;94824.64;;;;
2020/07/24 04:26:28;;;;;;;9.900001;9;;;;;;;15.53;100;94824.64;;;;
2020/07/24 04:27:29;;;;;;;9.900001;9;;;;;;;15.53;100;94824.64;;;;
2020/07/24 04:28:29;;;;;;;9.900001;9;;;;;;;15.53;100;94824.64;;;;
2020/07/24 04:29:30;;;;;;;9.900001;9;;;;;;;15.53;100;94824.64;;;;
2020/07/24 04:30:30;;;;;;;9.900001;9;;;;;;;15.53;100;94824.64;;;;
2020/07/24 04:31:31;;;;;;;9.900001;9;;;;;;;15.53;100;94824.64;;;;
2020/07/24 04:32:31;;;;;;;9.900001;9;;;;;;;15.53;100;94824.64;;;;
2020/07/24 04:33:32;;;;;;;9.900001;9;;;;;;;15.53;100;94824.64;;;;
2020/07/24 04:34:32;;;;;;;9.900001;9;;;;;;;15.53;100;94824.64;;;;
2020/07/24 04:35:33;;;;;;;9.65;8.700001;;;;;;;15.77;99.88965;94824.28;;;;
2020/07/24 04:36:33;;;;;;;9.65;8.700001;;;;;;;15.77;99.88965;94824.28;;;;
2020/07/24 04:37:34;;;;;;;9.65;8.700001;;;;;;;15.77;99.88965;94824.28;;;;
2020/07/24 04:38:34;;;;;;;9.65;8.700001;;;;;;;15.77;99.88965;94824.28;;;;
2020/07/24 04:39:35;;;;;;;9.65;8.700001;;;;;;;15.77;99.88965;94824.28;;;;
2020/07/24 04:40:35;;;;;;;9.65;8.700001;;;;;;;15.77;99.88965;94824.28;;;;
2020/07/24 04:41:36;;;;;;;9.65;8.700001;;;;;;;15.77;99.88965;94824.28;;;;
2020/07/24 04:42:36;;;;;;;9.65;8.700001;;;;;;;15.77;99.88965;94824.28;;;;
2020/07/24 04:43:37;;;;;;;9.65;8.700001;;;;;;;15.77;99.88965;94824.28;;;;
2020/07/24 04:44:37;;;;;;;9.65;8.700001;;;;;;;15.77;99.88965;94824.28;;;;
2020/07/24 04:45:38;;;;;;;9.65;8.700001;;;;;;;15.77;99.88965;94824.28;;;;
2020/07/24 04:46:38;;;;;;;9.450001;8.549999;;;;;;;15.92;99.56934;94826.93;;;;
2020/07/24 04:47:39;;;;;;;9.450001;8.549999;;;;;;;15.92;99.56934;94826.93;;;;
2020/07/24 04:48:39;;;;;;;9.450001;8.549999;;;;;;;15.92;99.56934;94826.93;;;;
2020/07/24 04:49:40;;;;;;;9.450001;8.549999;;;;;;;15.92;99.56934;94826.93;;;;
2020/07/24 04:50:40;;;;;;;9.450001;8.549999;;;;;;;15.92;99.56934;94826.93;;;;
2020/07/24 04:51:41;;;;;;;9.450001;8.549999;;;;;;;15.92;99.56934;94826.93;;;;
2020/07/24 04:52:41;;;;;;;9.450001;8.549999;;;;;;;15.92;99.56934;94826.93;;;;
2020/07/24 04:53:42;;;;;;;9.450001;8.549999;;;;;;;15.92;99.56934;94826.93;;;;
2020/07/24 04:54:42;;;;;;;9.450001;8.549999;;;;;;;15.92;99.56934;94826.93;;;;
2020/07/24 04:55:43;;;;;;;9.450001;8.549999;;;;;;;15.92;99.56934;94826.93;;;;
2020/07/24 04:56:43;;;;;;;9.299998;8.299999;;;;;;;16.09;99.50977;94838.28;;;;
2020/07/24 04:57:44;;;;;;;9.299998;8.299999;;;;;;;16.09;99.50977;94838.28;;;;
2020/07/24 04:58:44;;;;;;;9.299998;8.299999;;;;;;;16.09;99.50977;94838.28;;;;
2020/07/24 04:59:45;;;;;;;9.299998;8.299999;;;;;;;16.09;99.50977;94838.28;;;;
2020/07/24 05:00:45;;;;;;;9.299998;8.299999;;;;;;;16.09;99.50977;94838.28;;;;
2020/07/24 05:01:46;;;;;;;9.299998;8.299999;;;;;;;16.09;99.50977;94838.28;;;;
2020/07/24 05:02:46;;;;;;;9.299998;8.299999;;;;;;;16.09;99.50977;94838.28;;;;
2020/07/24 05:03:47;;;;;;;9.299998;8.299999;;;;;;;16.09;99.50977;94838.28;;;;
2020/07/24 05:04:47;;;;;;;9.299998;8.299999;;;;;;;16.09;99.50977;94838.28;;;;
2020/07/24 05:05:48;;;;;;;9.299998;8.299999;;;;;;;16.09;99.50977;94838.28;;;;
2020/07/24 05:06:48;;;;;;;9.299998;8.299999;;;;;;;16.09;99.50977;94838.28;;;;
2020/07/24 05:07:49;;;;;;;8.65;7.95;;;;;;;16.16;99.61035;94836.05;;;;
2020/07/24 05:08:49;;;;;;;8.65;7.95;;;;;;;16.16;99.61035;94836.05;;;;
2020/07/24 05:09:50;;;;;;;8.65;7.95;;;;;;;16.16;99.61035;94836.05;;;;
2020/07/24 05:10:50;;;;;;;8.65;7.95;;;;;;;16.16;99.61035;94836.05;;;;
2020/07/24 05:11:51;;;;;;;8.65;7.95;;;;;;;16.16;99.61035;94836.05;;;;
2020/07/24 05:12:51;;;;;;;8.65;7.95;;;;;;;16.16;99.61035;94836.05;;;;
2020/07/24 05:13:52;;;;;;;8.65;7.95;;;;;;;16.16;99.61035;94836.05;;;;
2020/07/24 05:14:52;;;;;;;8.65;7.95;;;;;;;16.16;99.61035;94836.05;;;;
2020/07/24 05:15:53;;;;;;;8.65;7.95;;;;;;;16.16;99.61035;94836.05;;;;
2020/07/24 05:16:53;;;;;;;8.65;7.95;;;;;;;16.16;99.61035;94836.05;;;;
2020/07/24 05:17:54;;;;;;;9.100001;8.1;;;;;;;16.43;99.61816;94844.61;;;;
2020/07/24 05:18:54;;;;;;;9.100001;8.1;;;;;;;16.43;99.61816;94844.61;;;;
2020/07/24 05:19:55;;;;;;;9.100001;8.1;;;;;;;16.43;99.61816;94844.61;;;;
2020/07/24 05:20:55;;;;;;;9.100001;8.1;;;;;;;16.43;99.61816;94844.61;;;;
2020/07/24 05:21:56;;;;;;;9.100001;8.1;;;;;;;16.43;99.61816;94844.61;;;;
2020/07/24 05:22:56;;;;;;;9.100001;8.1;;;;;;;16.43;99.61816;94844.61;;;;
2020/07/24 05:23:57;;;;;;;9.100001;8.1;;;;;;;16.43;99.61816;94844.61;;;;
2020/07/24 05:24:57;;;;;;;9.100001;8.1;;;;;;;16.43;99.61816;94844.61;;;;
2020/07/24 05:25:58;;;;;;;9.100001;8.1;;;;;;;16.43;99.61816;94844.61;;;;
2020/07/24 05:26:58;;;;;;;9.100001;8.1;;;;;;;16.43;99.61816;94844.61;;;;